createdAt,value
2022-09-25T00:02:10.378Z,14.68
2022-09-25T00:04:39.095Z,14.49
2022-09-25T00:07:07.620Z,14.54
2022-09-25T00:09:36.567Z,14.63
2022-09-25T00:12:05.187Z,14.62
2022-09-25T00:14:33.826Z,14.68
2022-09-25T00:17:03.398Z,14.77
2022-09-25T00:19:55.102Z,14.68
2022-09-25T00:22:27.010Z,14.69
2022-09-25T00:24:55.662Z,14.78
2022-09-25T00:27:24.132Z,14.79
2022-09-25T00:29:53.581Z,14.76
2022-09-25T00:32:22.103Z,14.74
2022-09-25T00:34:52.233Z,14.78
2022-09-25T00:37:21.226Z,14.65
2022-09-25T00:39:49.741Z,14.66
2022-09-25T00:42:21.504Z,14.37
2022-09-25T00:44:57.584Z,14.07
2022-09-25T00:47:46.280Z,13.90
2022-09-25T00:50:26.251Z,13.89
2022-09-25T00:53:04.122Z,13.91
2022-09-25T00:55:35.233Z,13.95
2022-09-25T00:58:05.262Z,14.01
2022-09-25T01:00:34.908Z,13.98
2022-09-25T01:03:05.279Z,14.02
2022-09-25T01:05:38.427Z,14.07
2022-09-25T01:08:10.323Z,14.08
2022-09-25T01:10:38.884Z,14.05
2022-09-25T01:13:07.984Z,14.00
2022-09-25T01:15:45.530Z,14.10
2022-09-25T01:18:26.426Z,13.91
2022-09-25T01:21:06.467Z,13.72
2022-09-25T01:23:57.396Z,13.54
2022-09-25T01:26:45.176Z,13.65
2022-09-25T01:29:19.353Z,13.61
2022-09-25T01:31:53.313Z,13.64
2022-09-25T01:34:28.622Z,13.72
2022-09-25T01:37:03.725Z,13.56
2022-09-25T01:39:36.622Z,13.47
2022-09-25T01:42:12.043Z,13.53
2022-09-25T01:44:47.633Z,13.51
2022-09-25T01:47:22.567Z,13.47
2022-09-25T01:49:56.925Z,13.30
2022-09-25T01:52:33.149Z,13.30
2022-09-25T01:55:10.003Z,13.35
2022-09-25T01:57:45.392Z,13.28
2022-09-25T02:00:19.095Z,13.29
2022-09-25T02:02:55.409Z,13.27
2022-09-25T02:05:29.662Z,13.30
2022-09-25T02:08:03.039Z,13.31
2022-09-25T02:10:36.832Z,13.28
2022-09-25T02:13:10.669Z,13.18
2022-09-25T02:15:45.146Z,13.11
2022-09-25T02:18:34.906Z,13.24
2022-09-25T02:21:14.331Z,13.22
2022-09-25T02:23:52.143Z,13.17
2022-09-25T02:26:27.386Z,13.22
2022-09-25T02:28:56.614Z,13.06
2022-09-25T02:31:35.899Z,13.13
2022-09-25T02:34:05.361Z,13.06
2022-09-25T02:36:36.315Z,13.15
2022-09-25T02:39:07.925Z,13.06
2022-09-25T02:41:50.558Z,13.10
2022-09-25T02:44:29.266Z,12.99
2022-09-25T02:47:14.313Z,12.88
2022-09-25T02:49:52.436Z,12.85
2022-09-25T02:52:29.164Z,12.95
2022-09-25T02:55:04.115Z,12.91
2022-09-25T02:57:40.894Z,12.91
2022-09-25T03:00:10.997Z,12.85
2022-09-25T03:02:46.839Z,12.76
2022-09-25T03:05:18.678Z,12.55
2022-09-25T03:08:04.431Z,12.60
2022-09-25T03:10:36.324Z,12.56
2022-09-25T03:13:15.524Z,12.49
2022-09-25T03:15:48.199Z,12.54
2022-09-25T03:18:18.361Z,12.50
2022-09-25T03:20:46.967Z,12.33
2022-09-25T03:23:15.796Z,12.37
2022-09-25T03:25:49.748Z,12.37
2022-09-25T03:28:19.658Z,12.40
2022-09-25T03:30:58.502Z,12.37
2022-09-25T03:33:29.899Z,12.37
2022-09-25T03:36:07.090Z,12.28
2022-09-25T03:38:35.608Z,12.23
2022-09-25T03:41:06.943Z,12.26
2022-09-25T03:43:37.491Z,12.26
2022-09-25T03:46:06.286Z,12.04
2022-09-25T03:48:36.676Z,11.96
2022-09-25T03:51:06.427Z,11.76
2022-09-25T03:53:35.809Z,11.82
2022-09-25T03:56:07.335Z,11.82
2022-09-25T03:58:36.697Z,11.92
2022-09-25T04:04:16.531Z,11.59
2022-09-25T04:06:46.150Z,11.64
2022-09-25T04:09:14.607Z,11.76
2022-09-25T04:11:43.127Z,11.72
2022-09-25T04:14:12.695Z,11.71
2022-09-25T04:16:42.012Z,11.71
2022-09-25T04:19:11.819Z,11.78
2022-09-25T04:21:41.668Z,11.68
2022-09-25T04:24:27.600Z,11.56
2022-09-25T04:26:56.034Z,11.72
2022-09-25T04:29:24.979Z,11.70
2022-09-25T04:32:07.424Z,11.68
2022-09-25T04:34:36.013Z,11.73
2022-09-25T04:37:06.071Z,11.74
2022-09-25T04:39:34.539Z,11.66
2022-09-25T04:42:03.144Z,11.75
2022-09-25T04:44:31.664Z,11.70
2022-09-25T04:47:00.175Z,11.64
2022-09-25T04:49:28.885Z,11.68
2022-09-25T04:51:57.496Z,11.74
2022-09-25T04:54:27.717Z,11.67
2022-09-25T04:56:57.663Z,11.61
2022-09-25T04:59:26.155Z,11.53
2022-09-25T05:01:54.699Z,11.43
2022-09-25T05:04:23.222Z,11.31
2022-09-25T05:06:51.687Z,11.25
2022-09-25T05:09:20.189Z,11.19
2022-09-25T05:11:50.014Z,11.10
2022-09-25T05:14:18.597Z,11.04
2022-09-25T05:16:47.491Z,11.08
2022-09-25T05:19:16.697Z,11.14
2022-09-25T05:21:45.724Z,11.22
2022-09-25T05:24:14.232Z,11.15
2022-09-25T05:26:43.028Z,11.08
2022-09-25T05:29:12.896Z,11.03
2022-09-25T05:31:42.916Z,11.01
2022-09-25T05:34:11.632Z,11.05
2022-09-25T05:36:40.065Z,10.83
2022-09-25T05:39:14.443Z,10.98
2022-09-25T05:41:43.267Z,10.93
2022-09-25T05:44:15.036Z,10.86
2022-09-25T05:46:43.583Z,10.97
2022-09-25T05:49:12.020Z,10.90
2022-09-25T05:51:40.520Z,10.92
2022-09-25T05:54:09.180Z,10.79
2022-09-25T05:56:37.796Z,10.96
2022-09-25T05:59:06.463Z,11.09
2022-09-25T06:01:36.372Z,11.13
2022-09-25T06:04:04.867Z,11.17
2022-09-25T06:06:33.323Z,11.08
2022-09-25T06:09:01.749Z,10.83
2022-09-25T06:11:31.725Z,10.93
2022-09-25T06:14:00.174Z,10.92
2022-09-25T06:16:28.679Z,10.84
2022-09-25T06:18:58.572Z,10.80
2022-09-25T06:21:27.148Z,10.72
2022-09-25T06:23:55.997Z,10.59
2022-09-25T06:26:26.028Z,10.52
2022-09-25T06:28:55.961Z,10.54
2022-09-25T06:31:27.182Z,10.48
2022-09-25T06:33:56.079Z,10.65
2022-09-25T06:36:27.379Z,10.71
2022-09-25T06:38:56.260Z,10.78
2022-09-25T06:41:25.085Z,10.87
2022-09-25T06:43:55.239Z,10.91
2022-09-25T06:46:24.111Z,10.98
2022-09-25T06:48:54.541Z,11.08
2022-09-25T06:51:23.530Z,11.15
2022-09-25T06:53:55.942Z,11.16
2022-09-25T06:56:24.479Z,11.11
2022-09-25T06:58:52.966Z,11.13
2022-09-25T07:01:21.570Z,11.15
2022-09-25T07:03:49.929Z,11.25
2022-09-25T07:06:20.279Z,11.35
2022-09-25T07:08:49.504Z,11.55
2022-09-25T07:11:20.913Z,11.54
2022-09-25T07:13:55.456Z,11.62
2022-09-25T07:16:25.699Z,11.62
2022-09-25T07:18:55.735Z,11.64
2022-09-25T07:21:27.865Z,11.85
2022-09-25T07:23:57.633Z,11.87
2022-09-25T07:26:28.964Z,12.10
2022-09-25T07:28:59.458Z,12.29
2022-09-25T07:31:29.662Z,12.47
2022-09-25T07:33:59.758Z,12.64
2022-09-25T07:36:28.740Z,12.78
2022-09-25T07:38:57.176Z,12.78
2022-09-25T07:41:27.416Z,13.11
2022-09-25T07:46:46.487Z,13.67
2022-09-25T07:49:15.239Z,14.04
2022-09-25T07:51:43.670Z,14.49
2022-09-25T07:54:12.220Z,16.31
2022-09-25T07:56:42.073Z,19.50
2022-09-25T07:59:10.996Z,23.38
2022-09-25T08:01:44.683Z,26.31
2022-09-25T08:04:14.847Z,28.94
2022-09-25T08:06:43.477Z,29.81
2022-09-25T08:09:12.531Z,31.40
2022-09-25T08:11:43.085Z,32.61
2022-09-25T08:14:14.516Z,33.63
2022-09-25T08:16:43.907Z,34.49
2022-09-25T08:19:12.772Z,33.72
2022-09-25T08:21:41.701Z,33.09
2022-09-25T08:24:10.924Z,34.38
2022-09-25T08:26:39.497Z,34.96
2022-09-25T08:29:09.538Z,35.20
2022-09-25T08:31:38.165Z,33.91
2022-09-25T08:34:35.848Z,33.49
2022-09-25T08:36:58.130Z,33.98
2022-09-25T08:39:26.726Z,34.44
2022-09-25T08:41:56.627Z,34.42
2022-09-25T08:44:32.425Z,32.55
2022-09-25T08:47:24.345Z,34.00
2022-09-25T08:50:05.932Z,34.79
2022-09-25T08:52:35.753Z,33.05
2022-09-25T08:55:05.046Z,33.93
2022-09-25T08:57:40.367Z,34.50
2022-09-25T09:00:20.352Z,31.84
2022-09-25T09:02:54.394Z,32.75
2022-09-25T09:05:27.232Z,33.73
2022-09-25T09:08:00.517Z,32.63
2022-09-25T09:10:35.270Z,33.50
2022-09-25T09:13:15.234Z,32.76
2022-09-25T09:15:51.329Z,33.97
2022-09-25T09:18:24.387Z,33.55
2022-09-25T09:20:56.765Z,34.64
2022-09-25T09:23:28.709Z,34.23
2022-09-25T09:26:03.144Z,35.70
2022-09-25T09:29:04.908Z,36.26
2022-09-25T09:31:46.964Z,36.27
2022-09-25T09:35:04.259Z,37.31
2022-09-25T09:37:31.872Z,36.00
2022-09-25T09:40:19.263Z,36.83
2022-09-25T09:42:56.565Z,34.36
2022-09-25T09:45:33.276Z,33.42
2022-09-25T09:48:14.077Z,35.47
2022-09-25T09:50:51.373Z,35.47
2022-09-25T09:53:30.531Z,35.18
2022-09-25T09:56:06.426Z,32.55
2022-09-25T09:58:48.487Z,29.58
2022-09-25T10:01:40.241Z,29.24
2022-09-25T10:04:12.073Z,29.56
2022-09-25T10:06:46.795Z,30.30
2022-09-25T10:09:17.277Z,30.73
2022-09-25T10:11:48.493Z,32.58
2022-09-25T10:14:22.100Z,32.69
2022-09-25T10:16:52.900Z,30.05
2022-09-25T10:19:24.946Z,32.54
2022-09-25T10:22:00.266Z,31.42
2022-09-25T10:24:52.959Z,30.73
2022-09-25T10:27:33.077Z,29.50
2022-09-25T10:30:22.776Z,27.78
2022-09-25T10:32:59.189Z,28.23
2022-09-25T10:35:31.398Z,29.53
2022-09-25T10:38:02.521Z,31.24
2022-09-25T10:40:34.282Z,31.63
2022-09-25T10:43:15.874Z,29.26
2022-09-25T10:45:45.462Z,30.37
2022-09-25T10:48:46.168Z,30.23
2022-09-25T10:51:18.520Z,29.58
2022-09-25T10:53:48.038Z,29.89
2022-09-25T10:56:21.806Z,29.58
2022-09-25T10:58:55.853Z,29.42
2022-09-25T11:01:33.659Z,28.83
2022-09-25T11:04:06.512Z,29.31
2022-09-25T11:06:37.227Z,28.32
2022-09-25T11:09:14.078Z,27.69
2022-09-25T11:11:44.325Z,29.92
2022-09-25T11:14:22.457Z,29.32
2022-09-25T11:16:54.129Z,30.37
2022-09-25T11:19:27.203Z,30.77
2022-09-25T11:22:08.192Z,29.72
2022-09-25T11:24:51.475Z,29.92
2022-09-25T11:27:25.998Z,30.14
2022-09-25T11:30:06.380Z,29.95
2022-09-25T11:32:42.728Z,30.09
2022-09-25T11:35:26.439Z,30.01
2022-09-25T11:38:05.435Z,28.77
2022-09-25T11:41:02.405Z,27.35
2022-09-25T11:43:47.688Z,29.22
2022-09-25T11:46:23.624Z,32.08
2022-09-25T11:49:09.933Z,32.01
2022-09-25T11:52:22.912Z,31.13
2022-09-25T11:55:16.137Z,32.25
2022-09-25T11:57:57.221Z,33.50
2022-09-25T12:00:32.901Z,29.99
2022-09-25T12:03:11.974Z,27.40
2022-09-25T12:05:58.844Z,29.85
2022-09-25T12:08:44.143Z,31.69
2022-09-25T12:11:23.844Z,29.90
2022-09-25T12:13:59.816Z,29.75
2022-09-25T12:16:37.282Z,29.56
2022-09-25T12:19:16.954Z,28.24
2022-09-25T12:21:50.891Z,27.67
2022-09-25T12:24:33.073Z,27.13
2022-09-25T12:27:12.027Z,27.77
2022-09-25T12:30:00.850Z,27.56
2022-09-25T12:32:48.974Z,26.62
2022-09-25T12:35:35.168Z,25.93
2022-09-25T12:38:12.036Z,24.95
2022-09-25T12:40:46.399Z,24.95
2022-09-25T12:43:24.281Z,24.63
2022-09-25T12:45:58.841Z,24.66
2022-09-25T12:48:33.178Z,24.28
2022-09-25T12:51:08.972Z,24.66
2022-09-25T12:53:41.560Z,25.53
2022-09-25T12:56:15.523Z,25.83
2022-09-25T12:58:55.541Z,26.24
2022-09-25T13:01:35.423Z,26.07
2022-09-25T13:04:22.649Z,25.65
2022-09-25T13:06:54.334Z,25.33
2022-09-25T13:09:36.896Z,25.00
2022-09-25T13:12:10.569Z,24.72
2022-09-25T13:14:46.754Z,25.01
2022-09-25T13:17:16.485Z,25.25
2022-09-25T13:19:45.078Z,25.18
2022-09-25T13:22:20.607Z,25.20
2022-09-25T13:24:53.618Z,25.25
2022-09-25T13:27:24.889Z,25.28
2022-09-25T13:30:02.893Z,25.07
2022-09-25T13:32:35.400Z,25.25
2022-09-25T13:35:07.794Z,25.34
2022-09-25T13:37:38.667Z,25.44
2022-09-25T13:40:35.414Z,24.76
2022-09-25T13:43:24.241Z,25.22
2022-09-25T13:46:28.426Z,25.15
2022-09-25T13:49:36.007Z,25.30
2022-09-25T13:52:04.471Z,26.30
2022-09-25T13:54:34.990Z,26.41
2022-09-25T13:57:03.943Z,25.02
2022-09-25T13:59:41.462Z,25.25
2022-09-25T14:02:43.864Z,24.65
2022-09-25T14:05:17.998Z,24.60
2022-09-25T14:07:48.617Z,25.13
2022-09-25T14:10:19.232Z,24.90
2022-09-25T14:12:49.826Z,25.29
2022-09-25T14:15:25.222Z,25.26
2022-09-25T14:17:57.039Z,25.11
2022-09-25T14:20:33.778Z,24.76
2022-09-25T14:23:06.303Z,24.71
2022-09-25T14:25:38.326Z,25.01
2022-09-25T14:28:20.324Z,24.63
2022-09-25T14:31:05.810Z,24.32
2022-09-25T14:33:53.696Z,24.29
2022-09-25T14:36:35.060Z,24.46
2022-09-25T14:39:20.229Z,24.81
2022-09-25T14:42:04.503Z,24.75
2022-09-25T14:44:50.448Z,24.83
2022-09-25T14:47:21.526Z,24.56
2022-09-25T14:49:54.840Z,24.59
2022-09-25T14:52:27.764Z,24.55
2022-09-25T14:54:57.889Z,24.68
2022-09-25T14:57:29.479Z,24.69
2022-09-25T15:00:01.212Z,24.53
2022-09-25T15:02:34.471Z,24.63
2022-09-25T15:07:59.494Z,25.06
2022-09-25T15:10:31.727Z,25.00
2022-09-25T15:13:16.247Z,25.02
2022-09-25T15:16:07.451Z,24.81
2022-09-25T15:18:38.984Z,24.50
2022-09-25T15:21:09.553Z,24.69
2022-09-25T15:23:39.602Z,24.65
2022-09-25T15:26:15.027Z,24.58
2022-09-25T15:28:44.019Z,24.62
2022-09-25T15:31:12.918Z,24.55
2022-09-25T15:33:42.607Z,24.48
2022-09-25T15:36:17.962Z,24.71
2022-09-25T15:38:54.301Z,24.93
2022-09-25T15:41:23.946Z,25.10
2022-09-25T15:43:53.580Z,25.14
2022-09-25T15:46:41.176Z,24.84
2022-09-25T15:49:15.524Z,24.88
2022-09-25T15:51:52.771Z,25.01
2022-09-25T15:54:38.155Z,25.18
2022-09-25T15:57:13.399Z,24.96
2022-09-25T15:59:58.517Z,25.19
2022-09-25T16:02:51.187Z,25.17
2022-09-25T16:05:27.437Z,25.03
2022-09-25T16:08:17.619Z,25.00
2022-09-25T16:10:50.122Z,24.95
2022-09-25T16:13:22.426Z,24.88
2022-09-25T16:15:53.020Z,24.74
2022-09-25T16:18:32.172Z,24.73
2022-09-25T16:21:17.661Z,24.84
2022-09-25T16:23:55.967Z,24.77
2022-09-25T16:26:31.168Z,24.70
2022-09-25T16:29:08.495Z,24.76
2022-09-25T16:31:37.448Z,24.65
2022-09-25T16:34:08.730Z,24.52
2022-09-25T16:36:43.889Z,24.56
2022-09-25T16:39:17.099Z,24.73
2022-09-25T16:41:49.741Z,24.73
2022-09-25T16:44:20.669Z,24.70
2022-09-25T16:47:07.082Z,24.71
2022-09-25T16:49:36.281Z,24.74
2022-09-25T16:52:08.573Z,24.87
2022-09-25T16:54:39.351Z,24.79
2022-09-25T16:57:13.831Z,24.55
2022-09-25T16:59:42.307Z,24.55
2022-09-25T17:02:22.788Z,24.63
2022-09-25T17:04:52.062Z,24.72
2022-09-25T17:07:20.533Z,24.61
2022-09-25T17:09:48.960Z,24.79
2022-09-25T17:12:22.467Z,24.75
2022-09-25T17:14:51.662Z,24.77
2022-09-25T17:17:21.878Z,24.79
2022-09-25T17:19:51.248Z,24.65
2022-09-25T17:22:19.686Z,24.69
2022-09-25T17:24:48.146Z,24.60
2022-09-25T17:27:18.797Z,24.24
2022-09-25T17:29:48.234Z,23.72
2022-09-25T17:32:17.720Z,23.47
2022-09-25T17:34:47.214Z,23.22
2022-09-25T17:37:15.697Z,23.15
2022-09-25T17:39:44.128Z,23.06
2022-09-25T17:42:12.871Z,22.82
2022-09-25T17:44:43.883Z,22.64
2022-09-25T17:47:13.356Z,22.47
2022-09-25T17:49:42.065Z,22.35
2022-09-25T17:52:15.781Z,22.23
2022-09-25T17:54:44.767Z,22.20
2022-09-25T17:57:13.440Z,22.20
2022-09-25T17:59:43.603Z,22.13
2022-09-25T18:02:17.981Z,22.10
2022-09-25T18:04:46.531Z,21.98
2022-09-25T18:07:15.726Z,21.97
2022-09-25T18:09:44.182Z,21.88
2022-09-25T18:12:12.660Z,21.76
2022-09-25T18:14:46.435Z,21.75
2022-09-25T18:17:16.703Z,21.63
2022-09-25T18:20:02.815Z,21.51
2022-09-25T18:22:31.366Z,21.35
2022-09-25T18:25:00.036Z,21.36
2022-09-25T18:27:30.770Z,21.14
2022-09-25T18:30:00.870Z,21.03
2022-09-25T18:32:31.462Z,20.90
2022-09-25T18:34:59.944Z,20.81
2022-09-25T18:37:28.425Z,20.72
2022-09-25T18:39:56.905Z,20.59
2022-09-25T18:42:25.333Z,20.53
2022-09-25T18:44:53.820Z,20.46
2022-09-25T18:47:23.667Z,20.42
2022-09-25T18:49:52.546Z,20.33
2022-09-25T18:52:21.067Z,20.21
2022-09-25T18:54:49.510Z,20.12
2022-09-25T18:57:18.395Z,20.06
2022-09-25T18:59:47.020Z,20.00
2022-09-25T19:02:21.216Z,19.91
2022-09-25T19:04:52.829Z,19.60
2022-09-25T19:07:21.545Z,19.35
2022-09-25T19:09:50.158Z,19.21
2022-09-25T19:12:18.754Z,19.20
2022-09-25T19:14:48.559Z,19.10
2022-09-25T19:17:18.743Z,19.18
2022-09-25T19:19:47.158Z,19.11
2022-09-25T19:22:19.033Z,18.82
2022-09-25T19:24:47.993Z,18.70
2022-09-25T19:27:17.895Z,18.59
2022-09-25T19:29:46.763Z,18.51
2022-09-25T19:32:17.185Z,18.53
2022-09-25T19:34:45.668Z,18.52
2022-09-25T19:37:15.377Z,18.49
2022-09-25T19:40:02.793Z,18.59
2022-09-25T19:42:33.830Z,18.55
2022-09-25T19:45:02.442Z,18.55
2022-09-25T19:47:30.881Z,18.51
2022-09-25T19:49:59.541Z,18.49
2022-09-25T19:52:28.002Z,18.47
2022-09-25T19:54:57.925Z,18.47
2022-09-25T19:57:26.454Z,18.41
2022-09-25T19:59:55.057Z,18.38
2022-09-25T20:02:23.584Z,18.37
2022-09-25T20:04:52.623Z,18.34
2022-09-25T20:07:21.163Z,18.34
2022-09-25T20:09:49.732Z,18.25
2022-09-25T20:12:19.617Z,18.20
2022-09-25T20:14:49.462Z,18.18
2022-09-25T20:17:17.979Z,17.89
2022-09-25T20:19:46.663Z,17.74
2022-09-25T20:22:15.344Z,17.62
2022-09-25T20:24:43.776Z,17.60
2022-09-25T20:27:12.273Z,17.50
2022-09-25T20:29:42.230Z,17.33
2022-09-25T20:32:10.739Z,17.25
2022-09-25T20:34:39.254Z,17.38
2022-09-25T20:37:07.702Z,17.22
2022-09-25T20:39:36.112Z,17.12
2022-09-25T20:42:04.595Z,17.11
2022-09-25T20:44:33.008Z,16.95
2022-09-25T20:47:02.934Z,16.89
2022-09-25T20:49:31.431Z,16.78
2022-09-25T20:52:00.315Z,16.80
2022-09-25T20:54:29.289Z,16.83
2022-09-25T20:56:57.774Z,16.78
2022-09-25T20:59:26.641Z,16.57
2022-09-25T21:01:55.439Z,16.74
2022-09-25T21:04:25.428Z,16.78
2022-09-25T21:06:53.867Z,16.85
2022-09-25T21:09:25.731Z,16.96
2022-09-25T21:11:55.329Z,16.95
2022-09-25T21:14:28.325Z,17.05
2022-09-25T21:16:57.782Z,16.96
2022-09-25T21:19:28.150Z,17.11
2022-09-25T21:21:56.581Z,17.06
2022-09-25T21:24:25.023Z,16.97
2022-09-25T21:26:53.527Z,16.73
2022-09-25T21:29:22.109Z,16.62
2022-09-25T21:31:51.128Z,16.55
2022-09-25T21:34:20.671Z,16.52
2022-09-25T21:36:50.531Z,16.47
2022-09-25T21:39:21.019Z,16.48
2022-09-25T21:41:50.624Z,16.47
2022-09-25T21:44:24.323Z,16.29
2022-09-25T21:46:52.931Z,16.27
2022-09-25T21:49:22.517Z,16.30
2022-09-25T21:51:52.573Z,16.29
2022-09-25T21:54:22.052Z,16.24
2022-09-25T21:56:50.557Z,16.23
2022-09-25T21:59:19.385Z,16.04
2022-09-25T22:01:47.933Z,16.04
2022-09-25T22:04:17.212Z,15.93
2022-09-25T22:06:48.234Z,15.90
2022-09-25T22:09:19.691Z,15.84
2022-09-25T22:11:49.455Z,15.66
2022-09-25T22:14:19.138Z,15.68
2022-09-25T22:16:49.778Z,15.63
2022-09-25T22:19:20.141Z,15.59
2022-09-25T22:21:51.212Z,15.60
2022-09-25T22:24:21.882Z,15.60
2022-09-25T22:26:52.841Z,15.70
2022-09-25T22:29:22.132Z,15.69
2022-09-25T22:31:51.092Z,15.65
2022-09-25T22:34:22.582Z,15.48
2022-09-25T22:36:56.204Z,15.55
2022-09-25T22:39:30.077Z,15.50
2022-09-25T22:41:58.637Z,15.39
2022-09-25T22:44:27.465Z,15.31
2022-09-25T22:46:56.089Z,15.31
2022-09-25T22:49:24.717Z,15.28
2022-09-25T22:51:53.174Z,15.34
2022-09-25T22:54:22.198Z,15.21
2022-09-25T22:56:53.912Z,14.92
2022-09-25T22:59:22.416Z,14.86
2022-09-25T23:01:53.069Z,14.94
2022-09-25T23:04:24.660Z,14.92
2022-09-25T23:06:53.538Z,15.01
2022-09-25T23:09:25.092Z,15.08
2022-09-25T23:11:56.245Z,15.05
2022-09-25T23:14:26.674Z,14.98
2022-09-25T23:16:55.937Z,14.96
2022-09-25T23:19:25.168Z,14.94
2022-09-25T23:21:54.630Z,14.88
2022-09-25T23:24:23.643Z,14.93
2022-09-25T23:26:52.834Z,14.93
2022-09-25T23:29:23.670Z,14.97
2022-09-25T23:31:52.865Z,14.97
2022-09-25T23:34:21.782Z,14.80
2022-09-25T23:36:50.319Z,14.64
2022-09-25T23:39:21.138Z,14.70
2022-09-25T23:41:49.931Z,14.75
2022-09-25T23:44:18.720Z,14.73
2022-09-25T23:46:48.551Z,14.67
2022-09-25T23:49:17.194Z,14.48
2022-09-25T23:51:46.386Z,14.58
2022-09-25T23:54:15.241Z,14.55
2022-09-25T23:56:44.187Z,14.58
2022-09-25T23:59:13.930Z,14.59
